createdAt,value
2022-11-24T00:01:08.797Z,98497.78
2022-11-24T00:03:36.208Z,98497.22
2022-11-24T00:06:15.028Z,98503.59
2022-11-24T00:08:44.147Z,98506.19
2022-11-24T00:11:16.262Z,98510.34
2022-11-24T00:13:44.289Z,98500.69
2022-11-24T00:16:11.409Z,98500.06
2022-11-24T00:18:39.648Z,98501.88
2022-11-24T00:21:07.433Z,98496.47
2022-11-24T00:23:36.689Z,98505.91
2022-11-24T00:26:13.436Z,98508.81
2022-11-24T00:28:41.955Z,98515.34
2022-11-24T00:31:24.832Z,98519.78
2022-11-24T00:33:54.104Z,98531.00
2022-11-24T00:36:22.346Z,98539.59
2022-11-24T00:38:56.502Z,98535.13
2022-11-24T00:41:25.349Z,98538.81
2022-11-24T00:43:52.823Z,98542.47
2022-11-24T00:46:20.417Z,98537.28
2022-11-24T00:48:47.848Z,98546.13
2022-11-24T00:51:16.508Z,98555.00
2022-11-24T00:53:43.962Z,98553.47
2022-11-24T00:56:11.977Z,98556.06
2022-11-24T00:58:40.978Z,98554.72
2022-11-24T01:01:13.265Z,98563.91
2022-11-24T01:03:42.881Z,98558.16
2022-11-24T01:06:12.793Z,98560.56
2022-11-24T01:08:41.228Z,98564.22
2022-11-24T01:11:17.299Z,98566.06
2022-11-24T01:13:47.806Z,98564.78
2022-11-24T01:16:18.600Z,98566.09
2022-11-24T01:18:46.378Z,98572.38
2022-11-24T01:21:14.199Z,98572.94
2022-11-24T01:23:41.222Z,98578.44
2022-11-24T01:26:10.920Z,98580.81
2022-11-24T01:28:44.853Z,98578.97
2022-11-24T01:31:14.893Z,98586.03
2022-11-24T01:33:42.296Z,98589.66
2022-11-24T01:36:09.133Z,98586.28
2022-11-24T01:38:36.102Z,98594.09
2022-11-24T01:41:08.244Z,98594.41
2022-11-24T01:43:36.466Z,98598.84
2022-11-24T01:46:29.175Z,98603.53
2022-11-24T01:49:16.776Z,98603.53
2022-11-24T01:51:51.626Z,98608.50
2022-11-24T01:54:30.454Z,98608.28
2022-11-24T01:57:17.244Z,98608.28
2022-11-24T01:59:49.115Z,98602.59
2022-11-24T02:02:22.127Z,98605.19
2022-11-24T02:04:50.853Z,98604.41
2022-11-24T02:07:19.147Z,98599.19
2022-11-24T02:09:53.087Z,98599.47
2022-11-24T02:12:23.313Z,98607.84
2022-11-24T02:14:53.295Z,98602.13
2022-11-24T02:17:20.915Z,98602.13
2022-11-24T02:20:10.048Z,98603.69
2022-11-24T02:23:15.518Z,98600.00
2022-11-24T02:25:45.497Z,98606.78
2022-11-24T02:28:17.258Z,98596.63
2022-11-24T02:30:44.786Z,98598.97
2022-11-24T02:33:12.567Z,98601.56
2022-11-24T02:35:41.442Z,98593.75
2022-11-24T02:38:13.427Z,98603.13
2022-11-24T02:40:44.408Z,98600.78
2022-11-24T02:43:16.150Z,98600.00
2022-11-24T02:45:43.280Z,98595.88
2022-11-24T02:48:10.178Z,98603.44
2022-11-24T02:50:37.976Z,98604.22
2022-11-24T02:53:04.788Z,98601.06
2022-11-24T02:55:31.940Z,98608.88
2022-11-24T02:57:58.918Z,98601.06
2022-11-24T03:00:26.789Z,98597.69
2022-11-24T03:02:53.670Z,98605.22
2022-11-24T03:05:20.510Z,98600.31
2022-11-24T03:07:47.501Z,98605.50
2022-11-24T03:10:14.331Z,98608.38
2022-11-24T03:12:41.261Z,98603.44
2022-11-24T03:15:08.543Z,98598.50
2022-11-24T03:17:35.553Z,98607.66
2022-11-24T03:20:04.987Z,98605.31
2022-11-24T03:22:32.441Z,98612.34
2022-11-24T03:24:59.193Z,98604.06
2022-11-24T03:27:26.052Z,98614.72
2022-11-24T03:29:52.922Z,98612.41
2022-11-24T03:32:19.758Z,98622.06
2022-11-24T03:34:46.585Z,98619.19
2022-11-24T03:37:13.444Z,98618.72
2022-11-24T03:39:40.248Z,98611.94
2022-11-24T03:42:07.282Z,98619.75
2022-11-24T03:44:34.298Z,98621.06
2022-11-24T03:47:01.505Z,98620.06
2022-11-24T03:49:28.254Z,98636.22
2022-11-24T03:51:55.116Z,98628.41
2022-11-24T03:54:22.014Z,98628.41
2022-11-24T03:56:48.817Z,98635.22
2022-11-24T03:59:15.828Z,98639.91
2022-11-24T04:01:42.692Z,98635.00
2022-11-24T04:04:11.796Z,98644.63
2022-11-24T04:06:39.008Z,98651.38
2022-11-24T04:09:06.106Z,98649.84
2022-11-24T04:11:32.968Z,98646.19
2022-11-24T04:13:59.730Z,98650.63
2022-11-24T04:16:26.709Z,98647.72
2022-11-24T04:18:53.919Z,98648.00
2022-11-24T04:21:21.222Z,98655.28
2022-11-24T04:23:48.060Z,98656.59
2022-11-24T04:26:15.031Z,98659.97
2022-11-24T04:28:42.721Z,98668.56
2022-11-24T04:31:09.785Z,98673.78
2022-11-24T04:33:36.669Z,98675.59
2022-11-24T04:36:04.060Z,98679.25
2022-11-24T04:39:24.932Z,98686.78
2022-11-24T04:41:18.363Z,98689.69
2022-11-24T04:43:45.120Z,98692.53
2022-11-24T04:46:12.088Z,98694.34
2022-11-24T04:48:38.921Z,98699.28
2022-11-24T04:51:06.708Z,98706.31
2022-11-24T04:53:33.664Z,98709.69
2022-11-24T04:56:05.407Z,98705.78
2022-11-24T04:58:32.893Z,98715.97
2022-11-24T05:01:00.096Z,98709.69
2022-11-24T05:03:26.851Z,98712.59
2022-11-24T05:05:53.750Z,98711.00
2022-11-24T05:08:20.473Z,98722.19
2022-11-24T05:10:47.276Z,98725.84
2022-11-24T05:13:14.618Z,98722.75
2022-11-24T05:15:42.403Z,98725.09
2022-11-24T05:18:12.684Z,98725.34
2022-11-24T05:20:39.496Z,98731.59
2022-11-24T05:23:08.492Z,98733.19
2022-11-24T05:25:35.908Z,98736.03
2022-11-24T05:28:04.164Z,98732.13
2022-11-24T05:30:32.479Z,98733.19
2022-11-24T05:32:59.288Z,98749.81
2022-11-24T05:35:26.184Z,98746.97
2022-11-24T05:37:53.857Z,98745.63
2022-11-24T05:40:20.556Z,98748.00
2022-11-24T05:42:48.368Z,98747.69
2022-11-24T05:45:18.138Z,98751.09
2022-11-24T05:47:45.532Z,98750.28
2022-11-24T05:50:14.909Z,98754.44
2022-11-24T05:52:42.045Z,98759.94
2022-11-24T05:55:10.460Z,98766.94
2022-11-24T05:57:37.473Z,98777.91
2022-11-24T06:00:08.808Z,98777.13
2022-11-24T06:02:41.936Z,98776.84
2022-11-24T06:05:09.168Z,98790.63
2022-11-24T06:07:36.246Z,98791.41
2022-11-24T06:10:05.163Z,98790.63
2022-11-24T06:12:33.710Z,98794.00
2022-11-24T06:15:00.434Z,98795.56
2022-11-24T06:17:27.501Z,98790.63
2022-11-24T06:19:54.251Z,98798.16
2022-11-24T06:22:21.234Z,98805.44
2022-11-24T06:24:48.109Z,98805.97
2022-11-24T06:27:14.869Z,98802.06
2022-11-24T06:29:41.805Z,98812.97
2022-11-24T06:32:09.287Z,98813.50
2022-11-24T06:34:36.970Z,98819.00
2022-11-24T06:37:04.255Z,98825.22
2022-11-24T06:39:31.059Z,98826.78
2022-11-24T06:41:57.865Z,98821.56
2022-11-24T06:44:24.808Z,98828.06
2022-11-24T06:46:51.706Z,98823.38
2022-11-24T06:49:18.998Z,98830.38
2022-11-24T06:51:46.030Z,98822.81
2022-11-24T06:54:18.328Z,98827.19
2022-11-24T06:56:45.296Z,98835.25
2022-11-24T06:59:20.709Z,98833.94
2022-11-24T07:01:48.115Z,98839.41
2022-11-24T07:04:15.608Z,98844.84
2022-11-24T07:06:43.446Z,98842.22
2022-11-24T07:09:11.898Z,98860.97
2022-11-24T07:11:40.402Z,98861.22
2022-11-24T07:14:07.738Z,98856.25
2022-11-24T07:16:34.627Z,98862.75
2022-11-24T07:19:01.504Z,98858.03
2022-11-24T07:21:29.549Z,98866.09
2022-11-24T07:23:58.050Z,98869.22
2022-11-24T07:26:26.232Z,98874.13
2022-11-24T07:28:53.060Z,98877.50
2022-11-24T07:31:22.253Z,98876.19
2022-11-24T07:33:50.250Z,98881.63
2022-11-24T07:36:17.480Z,98871.72
2022-11-24T07:38:44.319Z,98884.47
2022-11-24T07:41:13.462Z,98886.31
2022-11-24T07:43:41.079Z,98886.53
2022-11-24T07:46:11.799Z,98891.50
2022-11-24T07:48:39.099Z,98903.19
2022-11-24T07:51:06.798Z,98896.66
2022-11-24T07:53:34.361Z,98905.28
2022-11-24T07:56:03.469Z,98902.91
2022-11-24T07:58:33.438Z,98903.41
2022-11-24T08:01:08.785Z,98903.41
2022-11-24T08:03:35.945Z,98907.31
2022-11-24T08:08:49.744Z,98918.78
2022-11-24T08:11:18.078Z,98920.91
2022-11-24T08:13:44.969Z,98918.06
2022-11-24T08:16:14.188Z,98925.59
2022-11-24T08:18:42.665Z,98925.59
2022-11-24T08:21:13.733Z,98926.91
2022-11-24T08:23:41.116Z,98925.66
2022-11-24T08:26:13.996Z,98929.28
2022-11-24T08:28:40.867Z,98931.13
2022-11-24T08:31:18.772Z,98934.78
2022-11-24T08:33:46.894Z,98938.72
2022-11-24T08:36:16.646Z,98939.50
2022-11-24T08:38:44.496Z,98943.16
2022-11-24T08:41:14.617Z,98940.81
2022-11-24T08:43:41.746Z,98944.47
2022-11-24T08:46:12.277Z,98947.88
2022-11-24T08:48:39.642Z,98948.13
2022-11-24T08:51:11.538Z,98952.56
2022-11-24T08:53:39.247Z,98957.78
2022-11-24T08:56:08.193Z,98954.66
2022-11-24T08:58:35.711Z,98953.59
2022-11-24T09:01:05.541Z,98953.88
2022-11-24T09:03:32.662Z,98951.25
2022-11-24T09:05:59.458Z,98953.34
2022-11-24T09:08:26.478Z,98954.34
2022-11-24T09:10:53.262Z,98959.34
2022-11-24T09:13:20.069Z,98955.66
2022-11-24T09:15:46.951Z,98949.66
2022-11-24T09:18:13.773Z,98952.00
2022-11-24T09:23:25.014Z,98955.59
2022-11-24T09:25:51.972Z,98960.78
2022-11-24T09:28:18.804Z,98958.94
2022-11-24T09:30:45.571Z,98952.16
2022-11-24T09:33:12.364Z,98955.78
2022-11-24T09:35:39.078Z,98958.16
2022-11-24T09:38:05.935Z,98955.00
2022-11-24T09:40:33.240Z,98955.22
2022-11-24T09:43:06.655Z,98950.28
2022-11-24T09:46:05.585Z,98949.25
2022-11-24T09:48:54.729Z,98953.94
2022-11-24T09:51:25.366Z,98957.84
2022-11-24T09:53:59.209Z,98959.41
2022-11-24T09:56:33.435Z,98959.34
2022-11-24T09:59:11.023Z,98959.88
2022-11-24T10:01:41.845Z,98966.06
2022-11-24T10:04:18.860Z,98968.94
2022-11-24T10:07:01.161Z,98969.19
2022-11-24T10:09:49.162Z,98961.09
2022-11-24T10:12:49.098Z,98949.03
2022-11-24T10:15:53.293Z,98950.31
2022-11-24T10:18:46.471Z,98954.72
2022-11-24T10:21:26.343Z,98951.56
2022-11-24T10:24:27.091Z,98950.22
2022-11-24T10:27:02.511Z,98944.97
2022-11-24T10:29:29.297Z,98942.03
2022-11-24T10:31:57.009Z,98941.97
2022-11-24T10:34:37.305Z,98952.09
2022-11-24T10:37:18.013Z,98959.44
2022-11-24T10:39:59.716Z,98952.59
2022-11-24T10:42:28.867Z,98957.53
2022-11-24T10:45:08.889Z,98963.25
2022-11-24T10:47:35.965Z,98956.97
2022-11-24T10:50:06.329Z,98956.97
2022-11-24T10:52:41.387Z,98956.44
2022-11-24T10:55:08.519Z,98968.16
2022-11-24T10:57:39.317Z,98966.34
2022-11-24T11:00:31.150Z,98952.19
2022-11-24T11:03:34.011Z,98952.19
2022-11-24T11:06:12.224Z,98958.97
2022-11-24T11:08:40.729Z,98955.31
2022-11-24T11:11:20.762Z,98960.25
2022-11-24T11:13:59.775Z,98953.41
2022-11-24T11:16:40.571Z,98963.88
2022-11-24T11:20:01.558Z,98963.09
2022-11-24T11:22:32.506Z,98942.97
2022-11-24T11:25:33.738Z,98955.78
2022-11-24T11:28:19.279Z,98946.34
2022-11-24T11:31:16.633Z,98955.47
2022-11-24T11:34:03.727Z,98958.22
2022-11-24T11:36:41.317Z,98953.59
2022-11-24T11:39:22.270Z,98959.38
2022-11-24T11:41:53.861Z,98954.41
2022-11-24T11:44:23.653Z,98960.94
2022-11-24T11:46:50.482Z,98964.06
2022-11-24T11:49:17.512Z,98958.53
2022-11-24T11:55:11.424Z,98964.78
2022-11-24T11:57:58.374Z,98961.13
2022-11-24T12:00:25.182Z,98959.28
2022-11-24T12:03:12.548Z,98965.28
2022-11-24T12:05:51.168Z,98963.44
2022-11-24T12:09:03.248Z,98963.94
2022-11-24T12:11:43.008Z,98962.34
2022-11-24T12:14:30.713Z,98959.72
2022-11-24T12:17:04.640Z,98956.56
2022-11-24T12:19:49.035Z,98958.38
2022-11-24T12:22:33.567Z,98958.63
2022-11-24T12:25:35.428Z,98962.00
2022-11-24T12:28:06.161Z,98960.94
2022-11-24T12:30:59.186Z,98965.88
2022-11-24T12:33:55.366Z,98967.22
2022-11-24T12:36:53.248Z,98965.88
2022-11-24T12:39:32.564Z,98969.50
2022-11-24T12:42:38.091Z,98973.13
2022-11-24T12:45:13.209Z,98976.22
2022-11-24T12:47:58.193Z,98973.59
2022-11-24T12:50:29.245Z,98977.84
2022-11-24T12:53:19.261Z,98984.13
2022-11-24T12:55:47.108Z,98978.63
2022-11-24T12:58:21.044Z,98970.75
2022-11-24T13:01:21.736Z,98963.69
2022-11-24T13:03:56.256Z,98967.38
2022-11-24T13:06:26.325Z,98977.78
2022-11-24T13:08:53.320Z,98980.88
2022-11-24T13:11:23.135Z,98983.25
2022-11-24T13:14:14.957Z,98981.88
2022-11-24T13:17:33.729Z,98981.88
2022-11-24T13:20:20.259Z,98979.25
2022-11-24T13:22:56.792Z,98985.06
2022-11-24T13:25:24.668Z,98981.97
2022-11-24T13:28:05.771Z,98985.63
2022-11-24T13:30:35.173Z,98991.66
2022-11-24T13:33:15.825Z,98985.34
2022-11-24T13:36:03.471Z,98990.28
2022-11-24T13:38:43.527Z,98994.47
2022-11-24T13:41:32.202Z,98985.84
2022-11-24T13:44:14.013Z,98992.13
2022-11-24T13:47:05.572Z,98997.66
2022-11-24T13:49:40.800Z,99010.72
2022-11-24T13:52:44.618Z,98999.75
2022-11-24T13:55:14.332Z,99008.16
2022-11-24T13:57:45.476Z,99010.50
2022-11-24T14:00:37.071Z,99009.72
2022-11-24T14:03:29.921Z,99001.13
2022-11-24T14:05:57.669Z,99010.50
2022-11-24T14:08:28.310Z,99021.22
2022-11-24T14:10:57.632Z,99020.75
2022-11-24T14:13:27.258Z,99014.44
2022-11-24T14:16:09.080Z,99009.22
2022-11-24T14:18:38.581Z,99018.13
2022-11-24T14:21:20.660Z,99028.38
2022-11-24T14:23:57.652Z,99034.94
2022-11-24T14:26:33.912Z,99031.53
2022-11-24T14:29:15.472Z,99031.31
2022-11-24T14:31:52.164Z,99037.09
2022-11-24T14:34:21.909Z,99047.50
2022-11-24T14:36:49.773Z,99043.31
2022-11-24T14:39:18.745Z,99053.84
2022-11-24T14:42:07.735Z,99044.44
2022-11-24T14:44:35.052Z,99038.94
2022-11-24T14:47:24.505Z,99041.69
2022-11-24T14:49:55.432Z,99042.78
2022-11-24T14:52:23.775Z,99046.69
2022-11-24T14:55:07.520Z,99037.75
2022-11-24T14:57:44.656Z,99042.22
2022-11-24T15:00:25.278Z,99047.44
2022-11-24T15:03:13.339Z,99055.81
2022-11-24T15:05:52.150Z,99052.16
2022-11-24T15:08:19.086Z,99063.13
2022-11-24T15:10:46.701Z,99051.91
2022-11-24T15:13:21.164Z,99063.91
2022-11-24T15:16:03.188Z,99064.19
2022-11-24T15:18:42.885Z,99063.44
2022-11-24T15:21:15.744Z,99074.94
2022-11-24T15:24:06.386Z,99085.63
2022-11-24T15:26:36.922Z,99079.06
2022-11-24T15:29:09.430Z,99081.72
2022-11-24T15:31:37.818Z,99085.38
2022-11-24T15:34:04.816Z,99086.91
2022-11-24T15:36:32.065Z,99085.56
2022-11-24T15:38:59.095Z,99085.28
2022-11-24T15:41:31.985Z,99080.84
2022-11-24T15:43:59.395Z,99081.13
2022-11-24T15:46:31.384Z,99084.50
2022-11-24T15:48:58.327Z,99084.50
2022-11-24T15:51:26.436Z,99085.56
2022-11-24T15:54:00.273Z,99084.28
2022-11-24T15:56:36.016Z,99083.00
2022-11-24T15:59:04.146Z,99089.28
2022-11-24T16:01:33.870Z,99090.63
2022-11-24T16:04:03.285Z,99096.63
2022-11-24T16:06:30.162Z,99099.53
2022-11-24T16:08:57.039Z,99107.66
2022-11-24T16:11:25.505Z,99118.16
2022-11-24T16:13:54.204Z,99126.59
2022-11-24T16:16:23.489Z,99133.44
2022-11-24T16:18:51.291Z,99137.31
2022-11-24T16:21:18.354Z,99131.06
2022-11-24T16:23:45.110Z,99126.31
2022-11-24T16:26:12.223Z,99129.66
2022-11-24T16:28:39.419Z,99142.97
2022-11-24T16:31:06.431Z,99145.03
2022-11-24T16:33:33.280Z,99137.44
2022-11-24T16:36:00.689Z,99144.22
2022-11-24T16:38:28.270Z,99149.16
2022-11-24T16:40:56.581Z,99152.56
2022-11-24T16:43:23.697Z,99155.44
2022-11-24T16:46:18.051Z,99161.75
2022-11-24T16:48:46.478Z,99162.28
2022-11-24T16:51:14.562Z,99170.13
2022-11-24T16:53:41.690Z,99172.97
2022-11-24T16:56:09.657Z,99179.75
2022-11-24T16:58:40.920Z,99179.50
2022-11-24T17:01:13.422Z,99175.81
2022-11-24T17:03:41.471Z,99187.06
2022-11-24T17:06:11.597Z,99188.91
2022-11-24T17:08:40.555Z,99193.06
2022-11-24T17:11:10.073Z,99188.13
2022-11-24T17:13:37.808Z,99194.97
2022-11-24T17:16:13.886Z,99194.13
2022-11-24T17:18:42.024Z,99193.91
2022-11-24T17:21:17.237Z,99200.19
2022-11-24T17:23:45.235Z,99207.50
2022-11-24T17:26:15.605Z,99208.03
2022-11-24T17:28:43.757Z,99212.97
2022-11-24T17:31:26.504Z,99209.31
2022-11-24T17:33:56.488Z,99216.59
2022-11-24T17:36:24.017Z,99221.06
2022-11-24T17:38:51.519Z,99221.34
2022-11-24T17:41:22.599Z,99235.19
2022-11-24T17:43:55.160Z,99224.72
2022-11-24T17:46:27.301Z,99231.25
2022-11-24T17:48:56.277Z,99225.50
2022-11-24T17:51:26.398Z,99227.59
2022-11-24T17:53:55.488Z,99234.59
2022-11-24T17:56:25.268Z,99227.22
2022-11-24T17:58:54.341Z,99231.91
2022-11-24T18:01:22.859Z,99230.84
2022-11-24T18:03:53.836Z,99241.06
2022-11-24T18:06:22.432Z,99228.47
2022-11-24T18:08:50.077Z,99236.81
2022-11-24T18:11:25.913Z,99233.91
2022-11-24T18:14:00.783Z,99239.69
2022-11-24T18:16:35.126Z,99253.28
2022-11-24T18:19:09.078Z,99246.47
2022-11-24T18:21:42.115Z,99257.16
2022-11-24T18:24:13.883Z,99247.47
2022-11-24T18:26:44.292Z,99254.53
2022-11-24T18:29:12.682Z,99244.59
2022-11-24T18:31:39.805Z,99244.31
2022-11-24T18:34:07.374Z,99252.16
2022-11-24T18:36:35.936Z,99249.22
2022-11-24T18:39:08.570Z,99246.09
2022-11-24T18:41:37.285Z,99251.06
2022-11-24T18:44:05.613Z,99253.94
2022-11-24T18:46:33.882Z,99260.22
2022-11-24T18:49:03.030Z,99256.84
2022-11-24T18:51:31.077Z,99259.47
2022-11-24T18:53:58.863Z,99263.91
2022-11-24T18:56:27.360Z,99260.00
2022-11-24T18:58:57.328Z,99268.41
2022-11-24T19:01:28.798Z,99271.31
2022-11-24T19:04:01.448Z,99251.97
2022-11-24T19:06:32.756Z,99260.09
2022-11-24T19:09:07.199Z,99262.44
2022-11-24T19:11:38.046Z,99265.59
2022-11-24T19:14:09.530Z,99272.69
2022-11-24T19:16:41.270Z,99277.13
2022-11-24T19:19:12.447Z,99279.22
2022-11-24T19:21:41.199Z,99283.69
2022-11-24T19:24:11.309Z,99281.31
2022-11-24T19:26:40.690Z,99285.78
2022-11-24T19:29:09.424Z,99282.38
2022-11-24T19:31:39.716Z,99277.38
2022-11-24T19:34:07.885Z,99288.09
2022-11-24T19:36:35.841Z,99287.31
2022-11-24T19:39:03.417Z,99292.84
2022-11-24T19:41:32.896Z,99295.44
2022-11-24T19:44:00.584Z,99297.78
2022-11-24T19:46:29.794Z,99309.03
2022-11-24T19:49:01.577Z,99303.25
2022-11-24T19:51:40.803Z,99308.75
2022-11-24T19:54:12.810Z,99299.84
2022-11-24T19:56:40.633Z,99306.63
2022-11-24T19:59:08.956Z,99313.72
2022-11-24T20:01:40.321Z,99305.63
2022-11-24T20:04:11.434Z,99307.97
2022-11-24T20:06:41.578Z,99313.19
2022-11-24T20:09:12.826Z,99310.09
2022-11-24T20:11:41.993Z,99312.97
2022-11-24T20:14:16.991Z,99312.41
2022-11-24T20:16:44.887Z,99322.09
2022-11-24T20:19:14.852Z,99315.03
2022-11-24T20:21:44.301Z,99321.31
2022-11-24T20:24:15.197Z,99314.00
2022-11-24T20:26:47.420Z,99320.25
2022-11-24T20:29:17.740Z,99325.47
2022-11-24T20:31:54.880Z,99328.34
2022-11-24T20:34:25.834Z,99329.94
2022-11-24T20:36:53.561Z,99332.56
2022-11-24T20:39:24.500Z,99334.88
2022-11-24T20:41:53.211Z,99332.56
2022-11-24T20:44:22.209Z,99332.03
2022-11-24T20:46:52.052Z,99347.44
2022-11-24T20:49:20.506Z,99340.69
2022-11-24T20:51:48.902Z,99340.19
2022-11-24T20:54:18.863Z,99344.13
2022-11-24T20:56:48.072Z,99345.19
2022-11-24T20:59:18.393Z,99346.50
2022-11-24T21:01:46.836Z,99350.16
2022-11-24T21:04:20.224Z,99345.94
2022-11-24T21:06:48.389Z,99360.88
2022-11-24T21:09:16.093Z,99361.16
2022-11-24T21:11:43.697Z,99360.09
2022-11-24T21:14:11.968Z,99367.94
2022-11-24T21:16:42.520Z,99372.28
2022-11-24T21:19:15.888Z,99371.44
2022-11-24T21:21:44.843Z,99375.69
2022-11-24T21:24:14.750Z,99374.19
2022-11-24T21:26:43.878Z,99369.47
2022-11-24T21:29:15.335Z,99368.97
2022-11-24T21:31:42.695Z,99374.47
2022-11-24T21:34:14.349Z,99379.19
2022-11-24T21:36:41.746Z,99379.97
2022-11-24T21:39:10.728Z,99386.78
2022-11-24T21:41:38.375Z,99383.59
2022-11-24T21:44:05.260Z,99396.97
2022-11-24T21:46:32.123Z,99389.13
2022-11-24T21:48:58.920Z,99389.63
2022-11-24T21:51:25.982Z,99401.13
2022-11-24T21:53:53.791Z,99391.44
2022-11-24T21:56:22.729Z,99396.91
2022-11-24T21:58:55.510Z,99392.25
2022-11-24T22:01:25.109Z,99397.50
2022-11-24T22:03:52.043Z,99400.88
2022-11-24T22:06:20.801Z,99411.84
2022-11-24T22:08:49.054Z,99400.59
2022-11-24T22:11:24.516Z,99410.56
2022-11-24T22:13:52.775Z,99412.66
2022-11-24T22:16:22.461Z,99415.56
2022-11-24T22:18:50.312Z,99412.38
2022-11-24T22:21:20.641Z,99413.44
2022-11-24T22:23:51.634Z,99421.56
2022-11-24T22:26:21.425Z,99429.91
2022-11-24T22:28:49.512Z,99426.03
2022-11-24T22:31:31.016Z,99428.34
2022-11-24T22:33:59.443Z,99427.59
2022-11-24T22:36:29.370Z,99427.06
2022-11-24T22:38:58.465Z,99428.91
2022-11-24T22:41:26.133Z,99426.03
2022-11-24T22:43:53.656Z,99430.50
2022-11-24T22:46:23.357Z,99433.34
2022-11-24T22:48:52.375Z,99440.91
2022-11-24T22:51:23.574Z,99439.91
2022-11-24T22:53:56.876Z,99447.97
2022-11-24T22:56:25.225Z,99443.53
2022-11-24T22:58:51.935Z,99437.56
2022-11-24T23:01:21.807Z,99439.34
2022-11-24T23:03:49.738Z,99440.91
2022-11-24T23:06:20.481Z,99438.59
2022-11-24T23:08:50.168Z,99441.47
2022-11-24T23:11:36.583Z,99438.06
2022-11-24T23:14:07.633Z,99434.41
2022-11-24T23:16:34.603Z,99435.19
2022-11-24T23:19:01.400Z,99432.81
2022-11-24T23:21:30.800Z,99435.44
2022-11-24T23:24:22.910Z,99434.66
2022-11-24T23:26:49.741Z,99435.19
2022-11-24T23:29:16.469Z,99432.28
2022-11-24T23:31:44.649Z,99437.00
2022-11-24T23:34:11.641Z,99433.59
2022-11-24T23:36:39.492Z,99441.44
2022-11-24T23:39:09.192Z,99430.19
2022-11-24T23:41:36.221Z,99439.09
2022-11-24T23:44:03.293Z,99447.72
2022-11-24T23:46:30.506Z,99439.13
2022-11-24T23:48:57.405Z,99443.81
2022-11-24T23:51:27.401Z,99446.44
2022-11-24T23:53:55.852Z,99436.75
2022-11-24T23:56:25.313Z,99442.50
2022-11-24T23:58:52.220Z,99443.53
